Pelican — WDC4616 — position and weather

sailwx.info

Track history (hours):
 
Tides and Currents Weather Stations Pressure Air Temp Water Temp Dewpoint Dewpoint Depression Visibility Wind Speed Wind Dir Waves Ship Positions

Pelican

Owner: Scherba Jr., Stephen, Seattle, WA. More information available from US FCC via Universal Licensing System and Coast Guard Vessel Documentation Center.

Last reported at 2015-Jul-13 21:13 UTC. Time now 2015-Jul-28 13:23 UTC.
Position N 49°51' W 124°45'.
Warning: this ship's position is 14 days out of date.

Length 16 m; draft 2 m.

Type: Pleasure craft. MMSI: 367027560.

Date/timePositionNaut miles runAvg speedWind from/ knotsBaromVisibWave heightAir tempDewpointWater temp
2015-Jul-13 21:13N 49°51' W 124°45'6 9.3
2015-Jul-13 20:33N 49°49' W 124°36'9 9.0
2015-Jul-13 19:33N 49°44' W 124°24'9 8.7
2015-Jul-13 18:33N 49°40' W 124°12'7 0.3
2015-Jul-12 20:33N 49°38' W 124°02'0 0.0
2015-Jul-12 05:11N 49°38' W 124°02'  
2015-Jul-10 00:17N 49°38' W 124°02'0 0.0
2015-Jul-09 23:34N 49°38' W 124°02'0 0.0
2015-Jul-09 22:33N 49°38' W 124°02'0 0.0
2015-Jul-09 21:33N 49°38' W 124°02'0 0.0
2015-Jul-09 20:33N 49°38' W 124°02'6 6.1
2015-Jul-09 19:33N 49°32' W 124°06'8 8.5
2015-Jul-09 18:34N 49°24' W 124°09'8 7.7
2015-Jul-09 17:34N 49°17' W 124°03'8 8.5
2015-Jul-09 16:34N 49°11' W 123°55'1 0.1
2015-Jul-09 04:34N 49°10' W 123°56'  
2015-Jul-06 22:23N 49°10' W 123°56'0 0.0
2015-Jul-06 21:33N 49°10' W 123°56'5 5.2
2015-Jul-06 20:32N 49°08' W 123°49'9 8.5
2015-Jul-06 19:27N 49°01' W 123°39'7 8.0
2015-Jul-06 18:31N 48°56' W 123°31'6 6.0
2015-Jul-06 17:27N 48°50' W 123°27'  
2015-Jul-03 22:06N 48°51' W 123°30'1 1.4
2015-Jul-03 21:29N 48°51' W 123°29'  
Track history (hours):
 
Tides and Currents Weather Stations Pressure Air Temp Water Temp Dewpoint Dewpoint Depression Visibility Wind Speed Wind Dir Waves Ship Positions

Pelican

Owner: Scherba Jr., Stephen, Seattle, WA. More information available from US FCC via Universal Licensing System and Coast Guard Vessel Documentation Center.

Last reported at 2015-Jul-13 21:13 UTC. Time now 2015-Jul-28 13:23 UTC.
Position N 49°51' W 124°45'.
Warning: this ship's position is 14 days out of date.

Length 16 m; draft 2 m.

Type: Pleasure craft. MMSI: 367027560.

Date/timePositionNaut miles runAvg speedWind from/ knotsBaromVisibWave heightAir tempDewpointWater temp
2015-Jul-13 21:13N 49°51' W 124°45'6 9.3
2015-Jul-13 20:33N 49°49' W 124°36'9 9.0
2015-Jul-13 19:33N 49°44' W 124°24'9 8.7
2015-Jul-13 18:33N 49°40' W 124°12'7 0.3
2015-Jul-12 20:33N 49°38' W 124°02'0 0.0
2015-Jul-12 05:11N 49°38' W 124°02'  
2015-Jul-10 00:17N 49°38' W 124°02'0 0.0
2015-Jul-09 23:34N 49°38' W 124°02'0 0.0
2015-Jul-09 22:33N 49°38' W 124°02'0 0.0
2015-Jul-09 21:33N 49°38' W 124°02'0 0.0
2015-Jul-09 20:33N 49°38' W 124°02'6 6.1
2015-Jul-09 19:33N 49°32' W 124°06'8 8.5
2015-Jul-09 18:34N 49°24' W 124°09'8 7.7
2015-Jul-09 17:34N 49°17' W 124°03'8 8.5
2015-Jul-09 16:34N 49°11' W 123°55'1 0.1
2015-Jul-09 04:34N 49°10' W 123°56'  
2015-Jul-06 22:23N 49°10' W 123°56'0 0.0
2015-Jul-06 21:33N 49°10' W 123°56'5 5.2
2015-Jul-06 20:32N 49°08' W 123°49'9 8.5
2015-Jul-06 19:27N 49°01' W 123°39'7 8.0
2015-Jul-06 18:31N 48°56' W 123°31'6 6.0
2015-Jul-06 17:27N 48°50' W 123°27'  
2015-Jul-03 22:06N 48°51' W 123°30'1 1.4
2015-Jul-03 21:29N 48°51' W 123°29'  

Dump ship's entire track history